createdAt,value
2018-12-03T00:00:36.808Z,13.33
2018-12-03T00:01:36.808Z,13.30
2018-12-03T00:02:36.795Z,13.33
2018-12-03T00:03:36.799Z,13.33
2018-12-03T00:04:37.877Z,13.44
2018-12-03T00:05:36.789Z,13.36
2018-12-03T00:06:36.790Z,13.33
2018-12-03T00:07:36.782Z,13.40
2018-12-03T00:08:36.785Z,13.46
2018-12-03T00:09:36.778Z,13.36
2018-12-03T00:10:36.763Z,13.33
2018-12-03T00:11:36.773Z,13.46
2018-12-03T00:12:36.765Z,13.49
2018-12-03T00:13:36.817Z,13.37
2018-12-03T00:14:36.785Z,13.46
2018-12-03T00:15:36.749Z,13.37
2018-12-03T00:16:36.753Z,13.47
2018-12-03T00:17:36.739Z,13.44
2018-12-03T00:18:36.740Z,13.43
2018-12-03T00:19:36.734Z,13.51
2018-12-03T00:20:36.721Z,13.36
2018-12-03T00:21:36.742Z,13.37
2018-12-03T00:22:36.735Z,13.47
2018-12-03T00:23:36.770Z,13.40
2018-12-03T00:24:36.707Z,13.55
2018-12-03T00:25:36.707Z,13.43
2018-12-03T00:26:36.702Z,13.37
2018-12-03T00:27:36.698Z,13.37
2018-12-03T00:28:36.696Z,13.36
2018-12-03T00:29:36.689Z,13.38
2018-12-03T00:30:36.706Z,13.33
2018-12-03T00:31:36.700Z,13.36
2018-12-03T00:32:36.685Z,13.36
2018-12-03T00:33:36.671Z,13.36
2018-12-03T00:34:36.675Z,13.37
2018-12-03T00:35:36.671Z,13.32
2018-12-03T00:36:36.658Z,13.33
2018-12-03T00:37:36.667Z,13.43
2018-12-03T00:38:36.654Z,13.37
2018-12-03T00:39:36.649Z,13.33
2018-12-03T00:40:36.648Z,13.49
2018-12-03T00:41:36.655Z,13.32
2018-12-03T00:42:36.649Z,13.37
2018-12-03T00:43:36.657Z,13.38
2018-12-03T00:44:36.631Z,13.46
2018-12-03T00:45:36.628Z,13.33
2018-12-03T00:46:36.625Z,13.41
2018-12-03T00:47:36.620Z,13.44
2018-12-03T00:48:36.618Z,13.41
2018-12-03T00:49:36.613Z,13.51
2018-12-03T00:50:36.620Z,13.51
2018-12-03T00:51:36.604Z,13.49
2018-12-03T00:52:36.608Z,13.44
2018-12-03T00:53:36.604Z,13.43
2018-12-03T00:54:36.592Z,13.52
2018-12-03T00:55:36.599Z,13.46
2018-12-03T00:56:36.594Z,13.52
2018-12-03T00:57:36.584Z,13.44
2018-12-03T00:58:36.586Z,13.52
2018-12-03T00:59:36.575Z,13.51
2018-12-03T01:00:36.577Z,13.47
2018-12-03T01:01:36.588Z,13.51
2018-12-03T01:02:36.559Z,13.47
2018-12-03T01:03:36.571Z,13.49
2018-12-03T01:04:36.549Z,13.58
2018-12-03T01:05:36.545Z,13.61
2018-12-03T01:06:36.546Z,13.56
2018-12-03T01:07:36.553Z,13.59
2018-12-03T01:08:36.538Z,13.52
2018-12-03T01:09:36.541Z,13.61
2018-12-03T01:10:36.531Z,13.65
2018-12-03T01:11:36.579Z,13.55
2018-12-03T01:12:36.535Z,13.58
2018-12-03T01:13:36.520Z,13.59
2018-12-03T01:14:36.510Z,13.63
2018-12-03T01:15:36.512Z,13.69
2018-12-03T01:16:36.505Z,13.69
2018-12-03T01:17:36.540Z,13.62
2018-12-03T01:18:36.499Z,13.70
2018-12-03T01:19:36.511Z,13.77
2018-12-03T01:20:36.525Z,13.69
2018-12-03T01:21:36.507Z,13.71
2018-12-03T01:22:36.577Z,13.76
2018-12-03T01:23:36.497Z,13.74
2018-12-03T01:24:36.477Z,13.70
2018-12-03T01:25:36.468Z,13.73
2018-12-03T01:26:36.475Z,13.71
2018-12-03T01:27:36.471Z,13.80
2018-12-03T01:28:36.471Z,13.73
2018-12-03T01:29:36.460Z,13.76
2018-12-03T01:30:36.467Z,13.79
2018-12-03T01:31:36.495Z,13.80
2018-12-03T01:32:36.486Z,13.77
2018-12-03T01:33:36.464Z,13.77
2018-12-03T01:34:36.438Z,13.77
2018-12-03T01:35:36.445Z,13.74
2018-12-03T01:36:36.430Z,13.71
2018-12-03T01:37:36.435Z,13.74
2018-12-03T01:38:36.417Z,13.71
2018-12-03T01:39:36.418Z,13.76
2018-12-03T01:40:36.426Z,13.74
2018-12-03T01:41:36.413Z,13.59
2018-12-03T01:42:36.412Z,13.70
2018-12-03T01:43:36.399Z,13.70
2018-12-03T01:44:36.394Z,13.71
2018-12-03T01:45:36.400Z,13.73
2018-12-03T01:46:36.403Z,13.70
2018-12-03T01:47:36.402Z,13.71
2018-12-03T01:48:36.408Z,13.67
2018-12-03T01:49:36.403Z,13.73
2018-12-03T01:50:36.389Z,13.73
2018-12-03T01:51:36.370Z,13.76
2018-12-03T01:52:36.382Z,13.80
2018-12-03T01:53:36.359Z,13.77
2018-12-03T01:54:36.389Z,13.80
2018-12-03T01:55:36.360Z,13.74
2018-12-03T01:56:36.376Z,13.76
2018-12-03T01:57:36.348Z,13.77
2018-12-03T01:58:36.349Z,13.74
2018-12-03T01:59:36.355Z,13.74
2018-12-03T02:00:36.342Z,13.88
2018-12-03T02:01:36.342Z,13.84
2018-12-03T02:02:36.351Z,13.79
2018-12-03T02:03:36.333Z,13.84
2018-12-03T02:04:36.325Z,13.80
2018-12-03T02:05:36.322Z,13.88
2018-12-03T02:06:36.325Z,13.84
2018-12-03T02:07:36.319Z,13.80
2018-12-03T02:08:36.340Z,13.84
2018-12-03T02:09:36.328Z,13.84
2018-12-03T02:10:36.323Z,13.91
2018-12-03T02:11:36.308Z,13.74
2018-12-03T02:12:36.294Z,13.73
2018-12-03T02:13:36.322Z,13.80
2018-12-03T02:14:36.297Z,13.74
2018-12-03T02:15:36.285Z,13.74
2018-12-03T02:16:36.283Z,13.79
2018-12-03T02:17:36.289Z,13.80
2018-12-03T02:18:36.291Z,13.77
2018-12-03T02:19:36.291Z,13.74
2018-12-03T02:20:36.264Z,13.83
2018-12-03T02:21:36.283Z,13.76
2018-12-03T02:22:36.264Z,13.77
2018-12-03T02:23:36.254Z,13.76
2018-12-03T02:24:36.255Z,13.71
2018-12-03T02:25:36.280Z,13.67
2018-12-03T02:26:36.244Z,13.67
2018-12-03T02:27:36.247Z,13.63
2018-12-03T02:28:36.248Z,13.61
2018-12-03T02:29:36.248Z,13.67
2018-12-03T02:30:36.237Z,13.56
2018-12-03T02:31:36.221Z,13.55
2018-12-03T02:32:36.226Z,13.56
2018-12-03T02:33:36.218Z,13.63
2018-12-03T02:34:36.220Z,13.58
2018-12-03T02:35:36.218Z,13.63
2018-12-03T02:36:36.211Z,13.65
2018-12-03T02:37:36.212Z,13.63
2018-12-03T02:38:36.219Z,13.62
2018-12-03T02:39:36.211Z,13.63
2018-12-03T02:40:36.197Z,13.63
2018-12-03T02:41:36.185Z,13.62
2018-12-03T02:42:36.191Z,13.59
2018-12-03T02:43:36.181Z,13.67
2018-12-03T02:44:36.183Z,13.59
2018-12-03T02:45:36.176Z,13.56
2018-12-03T02:46:36.169Z,13.59
2018-12-03T02:47:36.169Z,13.58
2018-12-03T02:48:36.164Z,13.54
2018-12-03T02:49:36.160Z,13.62
2018-12-03T02:50:36.154Z,13.62
2018-12-03T02:51:36.156Z,13.62
2018-12-03T02:52:36.148Z,13.59
2018-12-03T02:53:36.151Z,13.56
2018-12-03T02:54:36.139Z,13.54
2018-12-03T02:55:36.145Z,13.63
2018-12-03T02:56:36.137Z,13.63
2018-12-03T02:57:36.134Z,13.61
2018-12-03T03:14:08.254Z,13.71
2018-12-03T03:15:08.218Z,13.71
2018-12-03T03:16:08.215Z,13.63
2018-12-03T03:17:08.205Z,13.67
2018-12-03T03:18:08.191Z,13.76
2018-12-03T03:19:08.186Z,13.61
2018-12-03T03:20:08.180Z,13.69
2018-12-03T03:21:08.183Z,13.65
2018-12-03T03:22:08.193Z,13.61
2018-12-03T03:23:08.157Z,13.65
2018-12-03T03:24:08.182Z,13.69
2018-12-03T03:25:08.160Z,13.65
2018-12-03T03:26:08.145Z,13.67
2018-12-03T03:27:08.150Z,13.63
2018-12-03T03:28:08.136Z,13.59
2018-12-03T03:29:08.131Z,13.59
2018-12-03T03:30:08.133Z,13.63
2018-12-03T03:31:08.127Z,13.54
2018-12-03T03:32:08.117Z,13.56
2018-12-03T03:33:08.117Z,13.56
2018-12-03T03:34:08.125Z,13.51
2018-12-03T03:35:08.104Z,13.49
2018-12-03T03:36:08.113Z,13.56
2018-12-03T03:37:08.129Z,13.52
2018-12-03T03:38:08.116Z,13.49
2018-12-03T03:39:08.106Z,13.43
2018-12-03T03:40:08.107Z,13.49
2018-12-03T03:41:08.121Z,13.49
2018-12-03T03:42:08.111Z,13.49
2018-12-03T03:43:08.110Z,13.54
2018-12-03T03:44:08.154Z,13.52
2018-12-03T03:45:08.104Z,13.54
2018-12-03T03:46:08.085Z,13.49
2018-12-03T03:47:08.076Z,13.46
2018-12-03T03:48:08.074Z,13.46
2018-12-03T03:49:08.081Z,13.47
2018-12-03T03:50:08.078Z,13.41
2018-12-03T03:51:08.086Z,13.47
2018-12-03T03:52:08.062Z,13.52
2018-12-03T03:53:08.072Z,13.46
2018-12-03T03:54:08.052Z,13.52
2018-12-03T03:55:08.073Z,13.46
2018-12-03T03:56:08.054Z,13.49
2018-12-03T03:57:08.045Z,13.43
2018-12-03T03:58:08.050Z,13.54
2018-12-03T03:59:08.028Z,13.52
2018-12-03T04:00:08.027Z,13.51
2018-12-03T04:01:08.038Z,13.44
2018-12-03T04:02:08.033Z,13.49
2018-12-03T04:03:08.034Z,13.49
2018-12-03T04:04:08.016Z,13.43
2018-12-03T04:05:08.021Z,13.51
2018-12-03T04:06:08.004Z,13.52
2018-12-03T04:07:07.998Z,13.49
2018-12-03T04:08:07.994Z,13.52
2018-12-03T04:09:08.004Z,13.49
2018-12-03T04:10:08.009Z,13.51
2018-12-03T04:11:07.995Z,13.47
2018-12-03T04:12:08.045Z,13.59
2018-12-03T04:13:07.999Z,13.54
2018-12-03T04:14:07.980Z,13.51
2018-12-03T04:15:07.970Z,13.49
2018-12-03T04:16:07.970Z,13.55
2018-12-03T04:17:07.960Z,13.51
2018-12-03T04:18:07.960Z,13.46
2018-12-03T04:19:07.965Z,13.52
2018-12-03T04:20:07.955Z,13.52
2018-12-03T04:21:07.966Z,13.59
2018-12-03T04:22:07.961Z,13.56
2018-12-03T04:23:07.970Z,13.52
2018-12-03T04:24:07.959Z,13.62
2018-12-03T04:25:07.931Z,13.51
2018-12-03T04:26:07.937Z,13.61
2018-12-03T04:27:07.935Z,13.59
2018-12-03T04:28:07.926Z,13.62
2018-12-03T04:29:07.917Z,13.55
2018-12-03T04:30:07.930Z,13.55
2018-12-03T04:31:07.920Z,13.65
2018-12-03T04:32:07.922Z,13.52
2018-12-03T04:33:07.918Z,13.61
2018-12-03T04:34:07.896Z,13.67
2018-12-03T04:35:07.909Z,13.67
2018-12-03T04:36:07.893Z,13.59
2018-12-03T04:37:07.899Z,13.59
2018-12-03T04:38:07.900Z,13.65
2018-12-03T04:39:07.892Z,13.63
2018-12-03T04:40:07.875Z,13.70
2018-12-03T04:41:07.872Z,13.70
2018-12-03T04:42:07.872Z,13.73
2018-12-03T04:43:07.879Z,13.77
2018-12-03T04:44:07.870Z,13.77
2018-12-03T04:45:07.877Z,13.73
2018-12-03T04:46:07.870Z,13.69
2018-12-03T04:47:07.849Z,13.80
2018-12-03T04:48:07.844Z,13.79
2018-12-03T04:49:07.849Z,13.88
2018-12-03T04:50:07.844Z,13.88
2018-12-03T04:51:07.856Z,13.87
2018-12-03T04:52:07.840Z,13.96
2018-12-03T04:53:07.843Z,13.89
2018-12-03T04:54:07.827Z,13.96
2018-12-03T04:55:07.890Z,14.01
2018-12-03T04:56:07.835Z,13.96
2018-12-03T04:57:07.831Z,14.02
2018-12-03T04:58:07.832Z,14.02
2018-12-03T04:59:07.816Z,13.94
2018-12-03T05:00:07.814Z,13.88
2018-12-03T05:01:07.797Z,13.88
2018-12-03T05:02:07.809Z,13.84
2018-12-03T05:03:07.810Z,13.91
2018-12-03T05:04:07.809Z,13.81
2018-12-03T05:05:07.782Z,13.88
2018-12-03T05:06:07.786Z,13.81
2018-12-03T05:07:07.761Z,13.91
2018-12-03T05:08:07.755Z,13.91
2018-12-03T05:09:07.744Z,13.91
2018-12-03T05:10:07.759Z,13.91
2018-12-03T05:11:07.739Z,13.88
2018-12-03T05:12:07.757Z,13.87
2018-12-03T05:13:07.735Z,13.91
2018-12-03T05:14:07.733Z,13.89
2018-12-03T05:15:07.727Z,13.99
2018-12-03T05:16:07.721Z,13.94
2018-12-03T05:17:07.722Z,13.96
2018-12-03T05:18:07.721Z,13.98
2018-12-03T05:19:07.725Z,13.99
2018-12-03T05:20:07.713Z,13.99
2018-12-03T05:21:07.724Z,13.95
2018-12-03T05:22:07.716Z,13.88
2018-12-03T05:23:07.698Z,13.96
2018-12-03T05:24:07.695Z,13.92
2018-12-03T05:25:07.694Z,13.99
2018-12-03T05:26:07.697Z,13.95
2018-12-03T05:27:07.687Z,13.96
2018-12-03T05:28:07.690Z,13.96
2018-12-03T05:29:07.680Z,13.91
2018-12-03T05:30:07.678Z,13.81
2018-12-03T05:31:07.676Z,13.91
2018-12-03T05:32:07.684Z,13.88
2018-12-03T05:33:07.659Z,13.94
2018-12-03T05:34:07.652Z,13.88
2018-12-03T05:35:07.647Z,13.81
2018-12-03T05:36:07.695Z,13.83
2018-12-03T05:37:07.655Z,13.83
2018-12-03T05:38:07.646Z,13.83
2018-12-03T05:39:07.643Z,13.83
2018-12-03T05:40:07.646Z,13.81
2018-12-03T05:41:07.658Z,13.88
2018-12-03T05:42:07.641Z,13.84
2018-12-03T05:43:07.624Z,13.87
2018-12-03T05:44:07.620Z,13.92
2018-12-03T05:45:07.647Z,13.94
2018-12-03T05:46:07.625Z,13.96
2018-12-03T05:47:07.609Z,13.81
2018-12-03T05:48:07.608Z,13.88
2018-12-03T05:49:07.606Z,13.91
2018-12-03T05:50:07.604Z,13.96
2018-12-03T05:51:07.616Z,13.92
2018-12-03T05:52:07.588Z,13.92
2018-12-03T05:53:07.587Z,13.99
2018-12-03T05:54:07.670Z,13.81
2018-12-03T05:55:07.600Z,13.92
2018-12-03T05:56:07.590Z,13.95
2018-12-03T05:57:07.574Z,13.89
2018-12-03T05:58:07.570Z,13.79
2018-12-03T05:59:07.565Z,13.92
2018-12-03T06:00:07.585Z,13.88
2018-12-03T06:01:07.561Z,13.84
2018-12-03T06:02:07.552Z,13.87
2018-12-03T06:03:07.552Z,13.80
2018-12-03T06:04:07.548Z,13.89
2018-12-03T06:05:07.550Z,13.81
2018-12-03T06:06:07.539Z,13.88
2018-12-03T06:07:07.552Z,13.81
2018-12-03T06:08:07.542Z,13.84
2018-12-03T06:09:07.540Z,13.89
2018-12-03T06:10:07.533Z,13.95
2018-12-03T06:11:07.521Z,13.87
2018-12-03T06:12:07.518Z,13.87
2018-12-03T06:13:07.525Z,13.88
2018-12-03T06:14:07.524Z,13.92
2018-12-03T06:15:07.686Z,13.84
2018-12-03T06:16:07.502Z,13.84
2018-12-03T06:17:07.530Z,13.83
2018-12-03T06:18:07.554Z,13.96
2018-12-03T06:19:07.562Z,13.89
2018-12-03T06:20:07.564Z,13.88
2018-12-03T06:21:07.584Z,13.94
2018-12-03T06:22:07.555Z,13.94
2018-12-03T06:23:07.479Z,13.81
2018-12-03T06:24:07.506Z,13.76
2018-12-03T06:25:07.502Z,13.77
2018-12-03T06:26:07.509Z,13.69
2018-12-03T06:27:07.568Z,13.67
2018-12-03T06:28:07.495Z,13.65
2018-12-03T06:29:07.475Z,13.71
2018-12-03T06:30:07.548Z,13.70
2018-12-03T06:31:07.560Z,13.61
2018-12-03T06:32:07.482Z,13.62
2018-12-03T06:33:07.505Z,13.61
2018-12-03T06:34:07.460Z,13.61
2018-12-03T06:35:07.448Z,13.55
2018-12-03T06:36:07.531Z,13.54
2018-12-03T06:37:07.434Z,13.56
2018-12-03T06:38:07.449Z,13.56
2018-12-03T06:39:07.496Z,13.54
2018-12-03T06:40:07.505Z,13.55
2018-12-03T06:41:07.442Z,13.63
2018-12-03T06:42:07.479Z,13.59
2018-12-03T06:43:07.472Z,13.54
2018-12-03T06:44:07.408Z,13.58
2018-12-03T06:45:07.580Z,13.62
2018-12-03T06:46:07.461Z,13.62
2018-12-03T06:47:07.482Z,13.59
2018-12-03T06:48:07.434Z,13.59
2018-12-03T06:49:07.476Z,13.65
2018-12-03T06:50:07.396Z,13.63
2018-12-03T06:51:07.413Z,13.71
2018-12-03T06:52:07.383Z,13.74
2018-12-03T06:53:07.382Z,13.71
2018-12-03T06:54:07.375Z,13.69
2018-12-03T06:55:07.418Z,13.74
2018-12-03T06:56:07.386Z,13.70
2018-12-03T06:57:07.379Z,13.71
2018-12-03T06:58:07.390Z,13.73
2018-12-03T06:59:07.354Z,13.77
2018-12-03T07:00:07.363Z,13.79
2018-12-03T07:01:07.387Z,13.79
2018-12-03T07:02:07.372Z,13.74
2018-12-03T07:03:07.346Z,13.74
2018-12-03T07:04:07.348Z,13.74
2018-12-03T07:05:07.362Z,13.71
2018-12-03T07:06:07.382Z,13.73
2018-12-03T07:07:07.353Z,13.76
2018-12-03T07:08:07.354Z,13.74
2018-12-03T07:09:07.329Z,13.71
2018-12-03T07:10:07.316Z,13.79
2018-12-03T07:11:07.315Z,13.76
2018-12-03T07:12:07.311Z,13.77
2018-12-03T07:13:07.313Z,13.70
2018-12-03T07:14:07.304Z,13.70
2018-12-03T07:15:07.300Z,13.63
2018-12-03T07:16:07.298Z,13.62
2018-12-03T07:17:07.305Z,13.65
2018-12-03T07:18:07.295Z,13.65
2018-12-03T07:19:07.312Z,13.61
2018-12-03T07:20:07.296Z,13.62
2018-12-03T07:21:07.303Z,13.55
2018-12-03T07:22:07.274Z,13.58
2018-12-03T07:23:07.314Z,13.63
2018-12-03T07:24:07.281Z,13.63
2018-12-03T07:25:07.261Z,13.61
2018-12-03T07:26:07.259Z,13.62
2018-12-03T07:27:07.272Z,13.56
2018-12-03T07:28:07.259Z,13.54
2018-12-03T07:29:07.265Z,13.49
2018-12-03T07:30:07.276Z,13.59
2018-12-03T07:31:07.265Z,13.58
2018-12-03T07:32:07.244Z,13.58
2018-12-03T07:33:07.254Z,13.58
2018-12-03T07:34:07.242Z,13.52
2018-12-03T07:35:07.246Z,13.59
2018-12-03T07:36:07.278Z,13.58
2018-12-03T07:37:07.227Z,13.63
2018-12-03T07:38:07.252Z,13.63
2018-12-03T07:39:07.272Z,13.55
2018-12-03T07:40:07.258Z,13.63
2018-12-03T07:41:07.236Z,13.62
2018-12-03T07:42:07.207Z,13.62
2018-12-03T07:43:07.194Z,13.70
2018-12-03T07:44:07.190Z,13.70
2018-12-03T07:45:07.199Z,13.79
2018-12-03T07:46:07.186Z,13.71
2018-12-03T07:47:07.181Z,13.77
2018-12-03T07:48:07.188Z,13.76
2018-12-03T07:49:07.177Z,13.73
2018-12-03T07:50:07.192Z,13.71
2018-12-03T07:51:07.169Z,13.73
2018-12-03T07:52:07.182Z,13.70
2018-12-03T07:53:07.158Z,13.80
2018-12-03T07:54:07.164Z,13.70
2018-12-03T07:55:07.152Z,13.80
2018-12-03T07:56:07.161Z,13.73
2018-12-03T07:57:07.148Z,13.77
2018-12-03T07:58:07.138Z,13.80
2018-12-03T07:59:07.148Z,13.91
2018-12-03T08:00:07.160Z,13.87
2018-12-03T08:01:07.129Z,13.80
2018-12-03T08:02:07.125Z,13.88
2018-12-03T08:03:07.144Z,13.91
2018-12-03T08:04:07.132Z,13.84
2018-12-03T08:05:07.118Z,13.83
2018-12-03T08:06:07.117Z,13.91
2018-12-03T08:07:07.144Z,13.84
2018-12-03T08:08:07.104Z,13.94
2018-12-03T08:09:07.144Z,13.89
2018-12-03T08:10:07.096Z,13.91
2018-12-03T08:11:07.124Z,13.88
2018-12-03T08:12:07.087Z,13.95
2018-12-03T08:13:07.094Z,13.84
2018-12-03T08:14:07.091Z,13.98
2018-12-03T08:15:07.081Z,13.88
2018-12-03T08:16:07.074Z,13.83
2018-12-03T08:17:07.068Z,13.98
2018-12-03T08:18:07.070Z,13.95
2018-12-03T08:19:07.060Z,13.98
2018-12-03T08:20:07.062Z,14.10
2018-12-03T08:21:07.056Z,13.95
2018-12-03T08:22:07.051Z,13.98
2018-12-03T08:23:07.044Z,14.01
2018-12-03T08:24:07.042Z,13.99
2018-12-03T08:25:07.043Z,13.99
2018-12-03T08:26:07.035Z,13.96
2018-12-03T08:27:07.041Z,13.92
2018-12-03T08:28:07.042Z,14.07
2018-12-03T08:29:07.022Z,14.10
2018-12-03T08:30:07.029Z,14.10
2018-12-03T08:31:07.016Z,14.24
2018-12-03T08:32:07.012Z,14.28
2018-12-03T08:33:07.021Z,14.17
2018-12-03T08:34:07.008Z,14.25
2018-12-03T08:35:07.003Z,14.27
2018-12-03T08:36:06.999Z,14.20
2018-12-03T08:37:07.000Z,14.24
2018-12-03T08:38:07.018Z,14.24
2018-12-03T08:39:06.993Z,14.21
2018-12-03T08:40:06.991Z,14.38
2018-12-03T08:41:06.995Z,14.31
2018-12-03T08:42:06.981Z,14.34
2018-12-03T08:43:06.982Z,14.38
2018-12-03T08:44:06.982Z,14.34
2018-12-03T08:45:06.978Z,14.37
2018-12-03T08:46:06.973Z,14.38
2018-12-03T08:47:06.978Z,14.37
2018-12-03T08:48:06.964Z,14.35
2018-12-03T08:49:06.965Z,14.31
2018-12-03T08:50:06.959Z,14.35
2018-12-03T08:51:06.960Z,14.29
2018-12-03T08:52:06.974Z,14.24
2018-12-03T08:53:06.955Z,14.19
2018-12-03T08:54:06.949Z,14.12
2018-12-03T08:55:06.945Z,14.25
2018-12-03T08:56:06.938Z,14.19
2018-12-03T08:57:06.941Z,14.20
2018-12-03T08:58:06.966Z,14.24
2018-12-03T08:59:06.926Z,14.09
2018-12-03T09:00:06.953Z,14.13
2018-12-03T09:01:06.938Z,14.07
2018-12-03T09:02:06.960Z,14.06
2018-12-03T09:03:06.945Z,14.01
2018-12-03T09:04:06.918Z,14.10
2018-12-03T09:05:06.975Z,13.98
2018-12-03T09:06:06.934Z,13.96
2018-12-03T09:07:06.930Z,13.96
2018-12-03T09:08:06.897Z,13.96
2018-12-03T09:09:06.928Z,13.88
2018-12-03T09:10:06.934Z,13.96
2018-12-03T09:11:06.948Z,13.89
2018-12-03T09:12:06.905Z,13.91
2018-12-03T09:13:06.912Z,13.84
2018-12-03T09:14:06.883Z,13.83
2018-12-03T09:15:06.871Z,13.81
2018-12-03T09:16:06.895Z,13.88
2018-12-03T09:17:06.919Z,13.76
2018-12-03T09:18:06.918Z,13.88
2018-12-03T09:19:06.913Z,13.76
2018-12-03T09:20:06.859Z,13.77
2018-12-03T09:21:06.862Z,13.73
2018-12-03T09:22:06.861Z,13.80
2018-12-03T09:23:06.874Z,13.70
2018-12-03T09:24:06.860Z,13.76
2018-12-03T09:25:06.846Z,13.80
2018-12-03T09:26:06.841Z,13.76
2018-12-03T09:27:06.840Z,13.73
2018-12-03T09:28:06.859Z,13.69
2018-12-03T09:29:06.894Z,13.73
2018-12-03T09:30:06.825Z,13.74
2018-12-03T09:31:06.823Z,13.74
2018-12-03T09:32:06.864Z,13.74
2018-12-03T09:33:06.815Z,13.74
2018-12-03T09:34:06.889Z,13.71
2018-12-03T09:35:06.819Z,13.67
2018-12-03T09:36:06.904Z,13.70
2018-12-03T09:37:06.803Z,13.69
2018-12-03T09:38:06.853Z,13.70
2018-12-03T09:39:06.801Z,13.71
2018-12-03T09:40:06.922Z,13.70
2018-12-03T09:41:06.838Z,13.76
2018-12-03T09:42:06.829Z,13.79
2018-12-03T09:43:06.827Z,13.80
2018-12-03T09:44:06.816Z,13.77
2018-12-03T09:45:06.770Z,13.84
2018-12-03T09:46:06.768Z,13.83
2018-12-03T09:47:06.769Z,13.80
2018-12-03T09:48:06.772Z,13.95
2018-12-03T09:49:15.382Z,13.87
2018-12-03T09:51:09.218Z,13.87
2018-12-03T09:52:00.151Z,13.89
2018-12-03T09:53:00.144Z,13.87
2018-12-03T09:54:00.142Z,13.91
2018-12-03T09:55:00.158Z,13.83
2018-12-03T09:56:00.138Z,13.84
2018-12-03T09:57:00.136Z,13.88
2018-12-03T09:58:08.763Z,13.87
2018-12-03T09:59:53.765Z,13.94
2018-12-03T10:00:53.726Z,13.96
2018-12-03T10:01:53.738Z,13.92
2018-12-03T10:02:53.728Z,13.99
2018-12-03T10:03:53.722Z,13.95
2018-12-03T10:04:53.717Z,13.95
2018-12-03T10:05:53.717Z,13.99
2018-12-03T10:06:53.706Z,13.99
2018-12-03T10:07:53.704Z,14.01
2018-12-03T10:08:53.707Z,14.04
2018-12-03T10:09:53.697Z,13.98
2018-12-03T10:10:53.714Z,14.02
2018-12-03T10:13:15.935Z,13.98
2018-12-03T10:14:15.905Z,13.96
2018-12-03T10:15:24.554Z,14.07
2018-12-03T10:17:19.357Z,13.99
2018-12-03T10:18:17.931Z,14.04
2018-12-03T10:20:02.696Z,14.02
2018-12-03T10:22:24.405Z,13.98
2018-12-03T10:23:33.059Z,14.04
2018-12-03T10:25:17.820Z,13.99
2018-12-03T10:26:17.801Z,14.07
2018-12-03T10:27:17.813Z,14.09
2018-12-03T10:28:17.800Z,14.02
2018-12-03T10:29:17.791Z,14.09
2018-12-03T10:30:17.829Z,14.07
2018-12-03T10:31:26.420Z,14.09
2018-12-03T10:33:11.205Z,14.19
2018-12-03T10:34:11.177Z,14.10
2018-12-03T10:35:19.827Z,14.25
2018-12-03T10:37:04.617Z,14.09
2018-12-03T10:38:04.620Z,14.07
2018-12-03T10:39:04.563Z,14.20
2018-12-03T10:40:04.614Z,14.12
2018-12-03T10:41:04.591Z,14.07
2018-12-03T10:42:04.649Z,14.12
2018-12-03T10:43:04.543Z,14.12
2018-12-03T10:44:04.545Z,14.06
2018-12-03T10:45:04.550Z,14.02
2018-12-03T10:46:13.218Z,14.02
2018-12-03T10:48:06.999Z,13.96
2018-12-03T10:49:06.568Z,14.10
2018-12-03T10:51:00.381Z,14.01
2018-12-03T10:51:59.945Z,13.99
2018-12-03T10:53:53.779Z,13.95
2018-12-03T10:54:53.370Z,13.96
2018-12-03T10:56:45.796Z,13.88
2018-12-03T10:57:46.723Z,13.71
2018-12-03T10:59:40.578Z,13.77
2018-12-03T11:00:40.140Z,13.61
2018-12-03T11:02:24.880Z,13.62
